Time;durP1;ratioP1;P1;durP2;ratioP2;P2;SDS_P1;SDS_P2;PMS_P1;PMS_P2;Temp;Humidity;BMP_temperature;BMP_pressure;BME280_temperature;BME280_humidity;BME280_pressure;Samples;Min_cycle;Max_cycle;Signal;HPM_P1;HPM_P2
2023/01/30 05:13:27;;;;;;;;;;;;;;;3.63;57.52;97763.63;4245927;27;10201;-60
2023/01/30 05:15:30;;;;;;;;;;;;;;;3.86;57.07;97757.31;4240907;27;5612;-61
2023/01/30 05:17:33;;;;;;;;;;;;;;;4.06;56.93;97760.84;4245963;27;5795;-60
2023/01/30 05:19:36;;;;;;;;;;;;;;;4.22;56.48;97765.66;4246248;27;5812;-61
2023/01/30 05:21:38;;;;;;;;;;;;;;;4.35;56.64;97763.66;4244034;27;5594;-60
2023/01/30 05:23:41;;;;;;;;;;;;;;;4.47;56.16;97762.59;4239313;27;5981;-61
2023/01/30 05:25:44;;;;;;;;;;;;;;;4.52;55.95;97773.50;4239699;27;5748;-61
2023/01/30 05:27:47;;;;;;;;;;;;;;;4.54;55.87;97779.47;4241516;27;5676;-60
2023/01/30 05:29:51;;;;;;;;;;;;;;;4.61;55.84;97770.09;4235460;27;5613;-60
2023/01/30 05:31:56;;;;;;;;;;;;;;;4.65;55.63;97766.28;4252251;27;5767;-61
2023/01/30 05:33:59;;;;;;;;;;;;;;;4.70;55.72;97765.84;4242541;27;5606;-61
2023/01/30 05:36:02;;;;;;;;;;;;;;;4.76;55.61;97764.50;4256423;27;5669;-61
2023/01/30 05:38:05;;;;;;;;;;;;;;;4.81;55.44;97757.91;4244048;27;5095;-62
2023/01/30 05:40:09;;;;;;;;;;;;;;;4.86;55.15;97755.69;4245186;27;7238;-62
2023/01/30 05:42:12;;;;;;;;;;;;;;;4.87;55.24;97756.50;4247124;27;6438;-61
2023/01/30 05:44:14;;;;;;;;;;;;;;;4.91;55.16;97760.53;4239369;27;5637;-60
2023/01/30 05:46:19;;;;;;;;;;;;;;;4.92;55.07;97747.31;4239936;27;5854;-60
2023/01/30 05:48:22;;;;;;;;;;;;;;;4.91;55.12;97743.03;4235709;27;5819;-61
2023/01/30 05:50:24;;;;;;;;;;;;;;;4.90;54.98;97754.47;4244409;27;5621;-61
2023/01/30 05:52:28;;;;;;;;;;;;;;;4.89;55.01;97765.09;4243366;27;5606;-62
2023/01/30 05:54:30;;;;;;;;;;;;;;;4.86;54.95;97760.09;4239792;27;5795;-62
2023/01/30 05:56:33;;;;;;;;;;;;;;;4.80;54.84;97761.47;4235345;27;5636;-61
2023/01/30 05:58:36;;;;;;;;;;;;;;;4.83;54.82;97760.38;4239182;27;5778;-60
2023/01/30 06:00:39;;;;;;;;;;;;;;;4.87;54.96;97756.50;4243803;27;5598;-62
2023/01/30 06:02:43;;;;;;;;;;;;;;;4.95;54.73;97754.06;4237546;27;5609;-60
2023/01/30 06:04:46;;;;;;;;;;;;;;;5.00;54.58;97757.13;4226933;28;5613;-61
2023/01/30 06:06:49;;;;;;;;;;;;;;;5.03;54.51;97754.22;4242627;27;5622;-61
2023/01/30 06:08:53;;;;;;;;;;;;;;;5.01;54.61;97757.97;4237865;27;5628;-62
2023/01/30 06:11:00;;;;;;;;;;;;;;;5.00;54.51;97767.63;4245094;27;5590;-60
2023/01/30 06:13:03;;;;;;;;;;;;;;;4.97;54.30;97768.69;4240533;27;5661;-61
2023/01/30 06:15:07;;;;;;;;;;;;;;;4.99;54.40;97759.88;4229938;28;5714;-61
2023/01/30 06:17:09;;;;;;;;;;;;;;;5.00;54.47;97765.00;4226023;27;5669;-61
2023/01/30 06:19:13;;;;;;;;;;;;;;;4.99;54.39;97776.44;4233354;27;5629;-61
2023/01/30 06:21:16;;;;;;;;;;;;;;;4.96;54.39;97771.44;4232290;27;5602;-62
2023/01/30 06:23:22;;;;;;;;;;;;;;;4.99;54.25;97771.19;4230763;27;5661;-61
2023/01/30 06:25:26;;;;;;;;;;;;;;;5.00;54.23;97778.09;4230298;27;5796;-61
2023/01/30 06:27:28;;;;;;;;;;;;;;;5.02;54.24;97773.53;4231985;27;5730;-62
2023/01/30 06:29:31;;;;;;;;;;;;;;;5.01;54.13;97766.66;4226982;27;5759;-61
2023/01/30 06:31:34;;;;;;;;;;;;;;;5.00;54.10;97772.84;4228351;28;5669;-61
2023/01/30 06:33:36;;;;;;;;;;;;;;;5.01;54.12;97769.25;4229309;28;6451;-62
2023/01/30 06:35:42;;;;;;;;;;;;;;;5.00;54.04;97780.72;4226283;27;5922;-62
2023/01/30 06:37:45;;;;;;;;;;;;;;;5.02;53.97;97785.81;4229465;27;5594;-62
2023/01/30 06:39:47;;;;;;;;;;;;;;;5.04;54.13;97800.44;4235329;28;5602;-60
2023/01/30 06:41:50;;;;;;;;;;;;;;;5.08;53.92;97790.50;4235800;28;5598;-61
2023/01/30 06:43:53;;;;;;;;;;;;;;;5.12;53.75;97782.25;4235909;28;5586;-61
2023/01/30 06:45:58;;;;;;;;;;;;;;;5.12;53.89;97790.13;4235690;28;5594;-61
2023/01/30 06:48:01;;;;;;;;;;;;;;;5.08;53.78;97778.22;4236068;28;5598;-62
2023/01/30 06:50:04;;;;;;;;;;;;;;;5.05;53.82;97786.38;4236264;28;5661;-61
2023/01/30 06:52:08;;;;;;;;;;;;;;;5.09;53.75;97784.31;4236383;28;5616;-62
2023/01/30 06:54:11;;;;;;;;;;;;;;;5.06;53.64;97789.81;4236166;28;5775;-62
2023/01/30 06:56:13;;;;;;;;;;;;;;;5.06;53.64;97781.94;4235604;28;6597;-62
2023/01/30 06:58:16;;;;;;;;;;;;;;;5.07;53.74;97779.19;4235365;28;5879;-61
2023/01/30 07:00:20;;;;;;;;;;;;;;;5.09;53.54;97779.06;4227776;28;5609;-62
2023/01/30 07:02:23;;;;;;;;;;;;;;;5.13;53.53;97783.91;4227378;28;5679;-61
2023/01/30 07:04:27;;;;;;;;;;;;;;;5.12;53.59;97776.19;4230521;28;5594;-62
2023/01/30 07:06:30;;;;;;;;;;;;;;;5.11;53.65;97770.13;4234388;28;5606;-62
2023/01/30 07:08:34;;;;;;;;;;;;;;;5.10;53.68;97763.22;4235849;28;5602;-61
2023/01/30 07:10:37;;;;;;;;;;;;;;;5.13;53.55;97762.94;4234888;28;5610;-62
2023/01/30 07:12:40;;;;;;;;;;;;;;;5.15;53.59;97760.19;4235572;28;6426;-63
2023/01/30 07:14:43;;;;;;;;;;;;;;;5.15;53.45;97766.25;4232747;28;5708;-62
2023/01/30 07:16:46;;;;;;;;;;;;;;;5.16;53.57;97767.91;4235406;28;5606;-62
2023/01/30 07:18:49;;;;;;;;;;;;;;;5.17;53.46;97753.84;4235260;28;5594;-62
2023/01/30 07:20:51;;;;;;;;;;;;;;;5.18;53.36;97755.50;4234671;28;5609;-61
2023/01/30 07:22:56;;;;;;;;;;;;;;;5.21;53.23;97752.63;4235428;28;5669;-61
2023/01/30 07:25:00;;;;;;;;;;;;;;;5.21;53.36;97744.75;4231450;28;6306;-61
2023/01/30 07:27:02;;;;;;;;;;;;;;;5.19;53.33;97767.63;4235007;28;5602;-62
2023/01/30 07:29:05;;;;;;;;;;;;;;;5.19;53.31;97791.22;4235248;28;5662;-60
2023/01/30 07:31:08;;;;;;;;;;;;;;;5.17;53.35;97801.03;4232401;28;5725;-61
2023/01/30 07:33:11;;;;;;;;;;;;;;;5.16;53.41;97807.22;4234527;28;5712;-60
2023/01/30 07:35:13;;;;;;;;;;;;;;;5.17;53.24;97808.06;4218588;28;5660;-61
2023/01/30 07:37:16;;;;;;;;;;;;;;;5.19;53.25;97809.56;4218354;28;5668;-61
2023/01/30 07:39:19;;;;;;;;;;;;;;;5.23;53.22;97813.59;4220399;28;5621;-61
2023/01/30 07:41:23;;;;;;;;;;;;;;;5.21;53.34;97825.19;4235074;28;5693;-61
2023/01/30 07:43:26;;;;;;;;;;;;;;;5.22;53.20;97818.97;4234270;28;5629;-61
2023/01/30 07:45:34;;;;;;;;;;;;;;;5.24;53.29;97827.53;4235087;28;5598;-61
2023/01/30 07:47:37;;;;;;;;;;;;;;;5.29;53.13;97827.13;4234834;28;5680;-61
2023/01/30 07:49:40;;;;;;;;;;;;;;;5.29;53.17;97829.75;4234401;28;6286;-61
2023/01/30 07:51:43;;;;;;;;;;;;;;;5.26;53.36;97825.59;4234536;28;5610;-62
2023/01/30 07:53:49;;;;;;;;;;;;;;;5.24;53.25;97840.66;4234842;28;5681;-61
2023/01/30 07:55:52;;;;;;;;;;;;;;;5.22;53.33;97848.66;4219328;28;5617;-61
2023/01/30 07:57:57;;;;;;;;;;;;;;;5.20;53.13;97842.69;4217864;28;5605;-61
2023/01/30 07:59:59;;;;;;;;;;;;;;;5.22;53.12;97856.50;4231419;28;5771;-61
2023/01/30 08:02:02;;;;;;;;;;;;;;;5.24;53.01;97849.34;4229012;28;5688;-61
2023/01/30 08:04:05;;;;;;;;;;;;;;;5.21;53.13;97860.09;4215321;28;5879;-60
2023/01/30 08:06:08;;;;;;;;;;;;;;;5.18;53.17;97860.34;4218228;28;5669;-60
2023/01/30 08:08:11;;;;;;;;;;;;;;;5.21;53.03;97860.09;4217403;28;5109;-60
2023/01/30 08:10:14;;;;;;;;;;;;;;;5.28;52.96;97859.56;4229364;28;5606;-61
2023/01/30 08:12:17;;;;;;;;;;;;;;;5.34;52.84;97851.16;4234042;28;5597;-62
2023/01/30 08:14:22;;;;;;;;;;;;;;;5.36;52.71;97862.34;4234156;28;5598;-61
2023/01/30 08:16:25;;;;;;;;;;;;;;;5.37;52.79;97854.34;4234417;28;6421;-61
2023/01/30 08:18:28;;;;;;;;;;;;;;;5.40;52.79;97848.81;4225369;28;5601;-61
2023/01/30 08:20:31;;;;;;;;;;;;;;;5.43;52.58;97852.94;4215513;28;5625;-62
2023/01/30 08:22:34;;;;;;;;;;;;;;;5.44;52.60;97858.09;4234400;28;5609;-61
2023/01/30 08:24:37;;;;;;;;;;;;;;;5.45;52.84;97856.28;4229066;28;5609;-61
2023/01/30 08:26:40;;;;;;;;;;;;;;;5.45;52.52;97858.91;4232237;28;5606;-62
2023/01/30 08:28:43;;;;;;;;;;;;;;;5.43;52.69;97847.72;4221155;28;5819;-62
2023/01/30 08:30:47;;;;;;;;;;;;;;;5.46;52.82;97836.97;4228314;28;6931;-62
2023/01/30 08:32:51;;;;;;;;;;;;;;;5.46;52.61;97836.97;4233986;28;5602;-62
2023/01/30 08:34:53;;;;;;;;;;;;;;;5.46;52.70;97839.59;4234505;28;5606;-61
2023/01/30 08:36:56;;;;;;;;;;;;;;;5.45;52.62;97846.63;4212777;28;5719;-62
2023/01/30 08:38:59;;;;;;;;;;;;;;;5.48;52.68;97850.78;4217557;28;5621;-62
2023/01/30 08:41:05;;;;;;;;;;;;;;;5.52;52.61;97858.22;4217538;28;5632;-62
2023/01/30 08:43:08;;;;;;;;;;;;;;;5.56;52.56;97853.56;4217348;28;5621;-62
2023/01/30 08:45:11;;;;;;;;;;;;;;;5.60;52.33;97847.06;4217450;28;5797;-62
2023/01/30 08:47:16;;;;;;;;;;;;;;;5.63;52.51;97859.91;4217234;28;5620;-62
2023/01/30 08:49:18;;;;;;;;;;;;;;;5.67;52.34;97874.41;4216985;28;5601;-61
2023/01/30 08:51:21;;;;;;;;;;;;;;;5.64;52.34;97861.56;4234095;28;5706;-62
2023/01/30 08:53:24;;;;;;;;;;;;;;;5.65;52.33;97852.72;4228793;28;5115;-62
2023/01/30 08:55:27;;;;;;;;;;;;;;;5.68;52.29;97849.84;4232972;28;5597;-61
2023/01/30 08:57:31;;;;;;;;;;;;;;;5.72;52.25;97858.25;4215458;28;5731;-61
2023/01/30 08:59:34;;;;;;;;;;;;;;;5.75;52.19;97853.56;4234081;28;5601;-62
2023/01/30 09:01:37;;;;;;;;;;;;;;;5.78;52.19;97855.94;4233998;28;6840;-62
2023/01/30 09:03:42;;;;;;;;;;;;;;;5.79;52.10;97854.13;4227459;28;5677;-62
2023/01/30 09:05:45;;;;;;;;;;;;;;;5.79;52.17;97854.97;4215969;28;5640;-61
2023/01/30 09:07:48;;;;;;;;;;;;;;;5.75;52.20;97848.31;4227924;28;5760;-62
2023/01/30 09:09:51;;;;;;;;;;;;;;;5.78;52.05;97847.22;4224824;28;5827;-62
2023/01/30 09:11:54;;;;;;;;;;;;;;;5.79;52.24;97856.75;4216940;28;5600;-62
2023/01/30 09:13:56;;;;;;;;;;;;;;;5.84;52.17;97871.09;4221688;28;5658;-61
2023/01/30 09:15:59;;;;;;;;;;;;;;;5.85;52.14;97874.56;4233876;28;5598;-62
2023/01/30 09:18:03;;;;;;;;;;;;;;;5.81;52.21;97881.88;4231972;28;5779;-61
2023/01/30 09:20:09;;;;;;;;;;;;;;;5.78;52.05;97879.53;4233660;28;5586;-61
2023/01/30 09:22:12;;;;;;;;;;;;;;;5.78;52.22;97874.28;4232226;28;5684;-61
2023/01/30 09:24:15;;;;;;;;;;;;;;;5.76;52.21;97870.94;4233831;28;5693;-60
2023/01/30 09:26:18;;;;;;;;;;;;;;;5.77;52.06;97869.97;4233264;28;5692;-62
2023/01/30 09:28:21;;;;;;;;;;;;;;;5.77;52.03;97880.47;4232743;28;5593;-61
2023/01/30 09:30:25;;;;;;;;;;;;;;;5.78;52.04;97882.16;4233798;28;5625;-62
2023/01/30 09:32:28;;;;;;;;;;;;;;;5.75;52.08;97879.78;4234134;28;5813;-62
2023/01/30 09:34:30;;;;;;;;;;;;;;;5.77;51.87;97872.59;4233717;28;5598;-62
2023/01/30 09:36:35;;;;;;;;;;;;;;;5.79;51.97;97870.69;4233652;28;5614;-62
2023/01/30 09:38:37;;;;;;;;;;;;;;;5.85;51.97;97878.00;4228307;27;5848;-62
2023/01/30 09:40:51;;;;;;;;;;;;;;;5.91;51.94;97875.84;4218745;28;6518;-62
2023/01/30 09:43:23;;;;;;;;;;;;;;;5.91;51.66;97867.97;4232206;28;5605;-61
2023/01/30 09:45:45;;;;;;;;;;;;;;;5.90;51.69;97872.41;4233081;28;5602;-61
2023/01/30 09:47:56;;;;;;;;;;;;;;;5.94;51.70;97878.19;4233605;28;5606;-61
2023/01/30 09:50:14;;;;;;;;;;;;;;;5.95;51.81;97885.94;4231332;28;5931;-62
2023/01/30 09:52:28;;;;;;;;;;;;;;;6.00;51.77;97893.38;4236485;28;6907;-61
2023/01/30 09:54:35;;;;;;;;;;;;;;;5.93;51.67;97897.53;4227445;28;5637;-62
2023/01/30 09:56:38;;;;;;;;;;;;;;;5.94;51.59;97893.94;4222072;28;5700;-62
2023/01/30 09:58:47;;;;;;;;;;;;;;;5.98;51.55;97890.88;4235897;28;5606;-62
2023/01/30 10:00:56;;;;;;;;;;;;;;;5.97;51.65;97880.53;4231937;28;5617;-61
2023/01/30 10:03:06;;;;;;;;;;;;;;;5.97;51.60;97886.63;4237967;27;5680;-62
2023/01/30 10:05:09;;;;;;;;;;;;;;;5.96;51.51;97884.97;4218540;28;5669;-61
2023/01/30 10:07:20;;;;;;;;;;;;;;;5.97;51.66;97884.00;4226961;27;5597;-61
2023/01/30 10:09:38;;;;;;;;;;;;;;;6.01;51.65;97892.44;4222040;28;5731;-61
2023/01/30 10:11:54;;;;;;;;;;;;;;;6.03;51.49;97890.50;4219459;28;5716;-61
2023/01/30 10:14:14;;;;;;;;;;;;;;;6.05;51.55;97888.56;4231012;28;5824;-61
2023/01/30 10:16:21;;;;;;;;;;;;;;;6.04;51.13;97892.97;4227271;28;5875;-61
2023/01/30 10:18:47;;;;;;;;;;;;;;;6.01;51.34;97900.31;4236237;28;6268;-62
2023/01/30 10:20:59;;;;;;;;;;;;;;;6.02;51.56;97909.84;4235186;28;5613;-62
2023/01/30 10:23:17;;;;;;;;;;;;;;;6.05;51.35;97912.19;4230299;27;5579;-62
2023/01/30 10:25:28;;;;;;;;;;;;;;;6.09;51.32;97913.56;4223723;28;5605;-62
2023/01/30 10:27:32;;;;;;;;;;;;;;;6.10;51.41;97897.66;4219488;28;6301;-62
2023/01/30 10:29:38;;;;;;;;;;;;;;;6.12;51.35;97918.56;4219289;28;5712;-62
2023/01/30 10:31:45;;;;;;;;;;;;;;;6.14;51.34;97927.13;4219377;28;5975;-62
2023/01/30 10:33:57;;;;;;;;;;;;;;;6.16;51.35;97919.94;4219317;28;5044;-61
2023/01/30 10:36:05;;;;;;;;;;;;;;;6.16;51.38;97924.34;4221675;28;7671;-62
2023/01/30 10:38:16;;;;;;;;;;;;;;;6.20;51.18;97926.56;4219510;28;6380;-61
2023/01/30 10:40:28;;;;;;;;;;;;;;;6.21;51.00;97928.22;4234868;28;5364;-62
2023/01/30 10:42:38;;;;;;;;;;;;;;;6.18;51.25;97923.25;4228892;28;7375;-62
2023/01/30 10:44:41;;;;;;;;;;;;;;;6.17;51.10;97913.72;4236038;28;5688;-61
2023/01/30 10:47:01;;;;;;;;;;;;;;;6.12;51.03;97915.94;4236112;28;5685;-61
2023/01/30 10:49:06;;;;;;;;;;;;;;;6.10;51.16;97915.22;4235321;28;6287;-61
2023/01/30 10:51:21;;;;;;;;;;;;;;;6.06;51.44;97911.22;4235249;28;5598;-61
2023/01/30 10:53:33;;;;;;;;;;;;;;;6.04;51.18;97926.28;4223446;28;5630;-61
2023/01/30 10:55:43;;;;;;;;;;;;;;;6.04;51.17;97924.47;4221659;28;5790;-61
2023/01/30 10:57:56;;;;;;;;;;;;;;;6.04;51.02;97926.28;4229516;28;5744;-61
2023/01/30 11:00:03;;;;;;;;;;;;;;;6.05;51.11;97930.56;4235825;28;5684;-61
2023/01/30 11:02:23;;;;;;;;;;;;;;;6.06;51.03;97922.53;4235202;28;5677;-61
2023/01/30 11:04:31;;;;;;;;;;;;;;;6.05;50.87;97920.06;4232959;28;5764;-61
2023/01/30 11:06:35;;;;;;;;;;;;;;;6.08;51.00;97932.91;4233422;28;6263;-61
2023/01/30 11:08:38;;;;;;;;;;;;;;;6.07;50.89;97939.13;4217028;28;5616;-61
2023/01/30 11:10:42;;;;;;;;;;;;;;;6.09;51.05;97938.00;4228086;27;5827;-62
2023/01/30 11:12:45;;;;;;;;;;;;;;;6.09;50.96;97929.31;4252641;27;5571;-62
2023/01/30 11:14:53;;;;;;;;;;;;;;;6.08;50.99;97930.28;4235685;27;5579;-62
2023/01/30 11:16:58;;;;;;;;;;;;;;;6.11;50.76;97919.50;4226153;27;5770;-62
2023/01/30 11:19:05;;;;;;;;;;;;;;;6.11;51.12;97928.19;4227023;28;5609;-62
2023/01/30 11:21:25;;;;;;;;;;;;;;;6.09;50.81;97930.13;4231468;28;5610;-62
2023/01/30 11:23:44;;;;;;;;;;;;;;;6.08;51.01;97915.34;4231025;28;5605;-60
2023/01/30 11:25:50;;;;;;;;;;;;;;;6.10;51.05;97907.34;4228979;28;5605;-61
2023/01/30 11:28:16;;;;;;;;;;;;;;;6.11;50.98;97891.44;4231004;28;5805;-61
2023/01/30 11:30:20;;;;;;;;;;;;;;;6.10;50.81;97888.97;4233373;27;5689;-61
2023/01/30 11:32:27;;;;;;;;;;;;;;;6.09;50.85;97882.06;4230769;28;5586;-60
2023/01/30 11:34:30;;;;;;;;;;;;;;;6.10;50.99;97878.47;4228259;27;5743;-61
2023/01/30 11:36:34;;;;;;;;;;;;;;;6.10;50.84;97868.78;4227895;27;5827;-62
2023/01/30 11:38:38;;;;;;;;;;;;;;;6.12;50.70;97860.81;4228892;28;5622;-61
2023/01/30 11:40:41;;;;;;;;;;;;;;;6.14;50.85;97864.09;4228944;28;5680;-62
2023/01/30 11:42:48;;;;;;;;;;;;;;;6.16;50.82;97867.41;4234119;28;5710;-62
2023/01/30 11:44:56;;;;;;;;;;;;;;;6.17;50.71;97879.56;4235329;27;5784;-62
2023/01/30 11:47:22;;;;;;;;;;;;;;;6.14;50.62;97869.34;4226142;28;5703;-61
2023/01/30 11:49:33;;;;;;;;;;;;;;;6.10;50.77;97870.59;4226403;28;5610;-60
2023/01/30 11:51:56;;;;;;;;;;;;;;;6.09;50.96;97866.31;4227041;27;6438;-61
2023/01/30 11:54:01;;;;;;;;;;;;;;;6.11;50.86;97864.38;4225277;27;5827;-61
2023/01/30 11:56:09;;;;;;;;;;;;;;;6.12;50.77;97856.38;4227055;28;5740;-61
2023/01/30 11:58:16;;;;;;;;;;;;;;;6.13;50.62;97857.19;4217778;27;5661;-60
2023/01/30 12:00:22;;;;;;;;;;;;;;;6.17;50.57;97863.81;4231827;27;5096;-61
2023/01/30 12:02:29;;;;;;;;;;;;;;;6.21;50.51;97846.81;4225226;28;5644;-62
2023/01/30 12:04:33;;;;;;;;;;;;;;;6.24;50.64;97841.28;4232826;28;5716;-63
2023/01/30 12:06:38;;;;;;;;;;;;;;;6.24;50.66;97822.91;4228817;28;5684;-62
2023/01/30 12:08:43;;;;;;;;;;;;;;;6.23;50.72;97831.75;4204767;28;5805;-61
2023/01/30 12:10:49;;;;;;;;;;;;;;;6.24;50.72;97817.66;4218237;28;5680;-61
2023/01/30 12:12:54;;;;;;;;;;;;;;;6.23;50.69;97802.03;4217007;28;5653;-61
2023/01/30 12:15:22;;;;;;;;;;;;;;;6.23;50.79;97795.00;4220878;27;5606;-61
2023/01/30 12:17:36;;;;;;;;;;;;;;;6.26;50.60;97789.47;4221021;28;5657;-61
2023/01/30 12:19:52;;;;;;;;;;;;;;;6.24;50.62;97795.84;4231389;28;5684;-62
2023/01/30 12:22:01;;;;;;;;;;;;;;;6.19;50.68;97804.13;4234632;28;5659;-61
2023/01/30 12:24:16;;;;;;;;;;;;;;;6.12;50.66;97798.63;4232546;28;5726;-61
2023/01/30 12:26:26;;;;;;;;;;;;;;;6.11;50.71;97814.47;4217917;28;5691;-61
2023/01/30 12:28:36;;;;;;;;;;;;;;;6.10;50.87;97810.19;4219272;27;6438;-62
2023/01/30 12:30:47;;;;;;;;;;;;;;;6.03;50.73;97804.69;4225807;27;5664;-62
2023/01/30 12:32:51;;;;;;;;;;;;;;;6.08;50.90;97788.50;4219739;28;5700;-62
2023/01/30 12:34:54;;;;;;;;;;;;;;;6.12;50.75;97790.75;4229530;28;5594;-61
2023/01/30 12:37:08;;;;;;;;;;;;;;;6.13;50.69;97792.38;4231571;28;6139;-61
2023/01/30 12:39:35;;;;;;;;;;;;;;;6.15;50.81;97792.25;4220610;28;5717;-62
2023/01/30 12:42:14;;;;;;;;;;;;;;;6.18;50.75;97802.47;4230766;27;5598;-62
2023/01/30 12:44:37;;;;;;;;;;;;;;;6.12;50.63;97795.16;4221010;28;5620;-62
2023/01/30 12:47:01;;;;;;;;;;;;;;;6.15;50.85;97792.25;4228080;28;5698;-61
2023/01/30 12:49:25;;;;;;;;;;;;;;;6.15;50.79;97792.25;4233921;28;5590;-61
2023/01/30 12:51:42;;;;;;;;;;;;;;;6.19;50.81;97783.09;4234092;28;5712;-61
2023/01/30 12:53:59;;;;;;;;;;;;;;;6.22;50.58;97774.09;4222484;28;6316;-62
2023/01/30 12:56:23;;;;;;;;;;;;;;;6.21;50.67;97770.66;4222515;28;5681;-61
2023/01/30 12:58:32;;;;;;;;;;;;;;;6.21;50.58;97765.41;4234286;28;5593;-62
2023/01/30 13:00:50;;;;;;;;;;;;;;;6.21;50.68;97773.28;4227355;28;5613;-62
2023/01/30 13:03:10;;;;;;;;;;;;;;;6.22;50.62;97758.34;4228917;28;5752;-62
2023/01/30 13:05:27;;;;;;;;;;;;;;;6.22;50.63;97751.31;4233644;28;5594;-61
2023/01/30 13:07:37;;;;;;;;;;;;;;;6.21;50.51;97754.06;4233842;28;5740;-62
2023/01/30 13:09:54;;;;;;;;;;;;;;;6.17;50.61;97752.72;4233991;28;5688;-61
2023/01/30 13:12:09;;;;;;;;;;;;;;;6.17;50.65;97748.28;4232522;28;5602;-61
2023/01/30 13:14:26;;;;;;;;;;;;;;;6.21;50.55;97747.03;4217020;28;5719;-60
2023/01/30 13:16:38;;;;;;;;;;;;;;;6.23;50.67;97747.75;4231921;28;6306;-60
2023/01/30 13:18:50;;;;;;;;;;;;;;;6.25;50.79;97745.78;4230493;28;5820;-61
2023/01/30 13:21:00;;;;;;;;;;;;;;;6.26;50.58;97734.31;4233925;28;5749;-60
2023/01/30 13:23:11;;;;;;;;;;;;;;;6.28;50.76;97740.25;4227800;28;5598;-60
2023/01/30 13:25:25;;;;;;;;;;;;;;;6.31;50.57;97747.00;4235188;28;5610;-60
2023/01/30 13:27:34;;;;;;;;;;;;;;;6.34;50.48;97744.09;4231298;28;5624;-60
2023/01/30 13:29:39;;;;;;;;;;;;;;;6.33;50.71;97742.44;4229396;28;5764;-61
2023/01/30 13:31:50;;;;;;;;;;;;;;;6.33;50.53;97743.25;4231455;27;5684;-60
2023/01/30 13:34:05;;;;;;;;;;;;;;;6.36;50.62;97736.91;4228175;28;5629;-60
2023/01/30 13:36:15;;;;;;;;;;;;;;;6.36;50.57;97737.75;4230586;28;5685;-60
2023/01/30 13:38:21;;;;;;;;;;;;;;;6.34;50.54;97742.31;4236717;27;5660;-60
2023/01/30 13:40:25;;;;;;;;;;;;;;;6.35;50.56;97745.78;4220579;27;5699;-61
2023/01/30 13:42:36;;;;;;;;;;;;;;;6.37;50.64;97749.91;4242768;27;5613;-60
2023/01/30 13:44:43;;;;;;;;;;;;;;;6.39;50.53;97758.47;4236849;27;5725;-60
2023/01/30 13:46:47;;;;;;;;;;;;;;;6.36;50.55;97753.50;4234398;27;6334;-61
2023/01/30 13:49:03;;;;;;;;;;;;;;;6.38;50.75;97748.09;4223594;27;5687;-62
2023/01/30 13:51:37;;;;;;;;;;;;;;;6.40;50.78;97743.53;4231600;27;5628;-61
2023/01/30 13:53:48;;;;;;;;;;;;;;;6.36;50.65;97742.16;4228982;28;5606;-61
2023/01/30 13:55:57;;;;;;;;;;;;;;;6.39;50.61;97742.69;4227914;28;5688;-62
2023/01/30 13:58:10;;;;;;;;;;;;;;;6.39;50.65;97737.44;4221779;27;5862;-62
2023/01/30 14:00:29;;;;;;;;;;;;;;;6.43;50.56;97735.34;4232751;27;5626;-60
2023/01/30 14:02:32;;;;;;;;;;;;;;;6.41;50.81;97745.19;4228128;28;5816;-61
2023/01/30 14:04:46;;;;;;;;;;;;;;;6.40;50.69;97746.97;4235967;28;5598;-61
2023/01/30 14:06:48;;;;;;;;;;;;;;;6.39;50.81;97758.47;4224041;27;5736;-61
2023/01/30 14:08:58;;;;;;;;;;;;;;;6.42;50.86;97757.34;4232181;27;5720;-60
2023/01/30 14:11:02;;;;;;;;;;;;;;;6.46;50.75;97752.66;4229488;28;5748;-60
2023/01/30 14:13:06;;;;;;;;;;;;;;;6.49;50.65;97752.34;4226983;28;5621;-60
2023/01/30 14:15:23;;;;;;;;;;;;;;;6.50;50.84;97746.94;4225729;27;5714;-61
2023/01/30 14:17:26;;;;;;;;;;;;;;;6.53;50.61;97757.16;4231012;28;5614;-61
2023/01/30 14:19:37;;;;;;;;;;;;;;;6.54;50.61;97742.22;4234342;27;5129;-61
2023/01/30 14:21:54;;;;;;;;;;;;;;;6.53;50.56;97733.50;4224227;27;5648;-62
2023/01/30 14:24:00;;;;;;;;;;;;;;;6.55;50.88;97742.06;4233283;27;5602;-61
2023/01/30 14:26:03;;;;;;;;;;;;;;;6.56;50.83;97756.03;4227694;28;5590;-61
2023/01/30 14:28:49;;;;;;;;;;;;;;;6.58;50.67;97768.06;4235454;28;5383;-61
2023/01/30 14:30:53;;;;;;;;;;;;;;;6.57;50.55;97750.66;4233218;27;6936;-61
2023/01/30 14:32:57;;;;;;;;;;;;;;;6.58;50.68;97757.56;4233028;27;5650;-61
2023/01/30 14:35:26;;;;;;;;;;;;;;;6.57;50.66;97760.31;4229375;27;5597;-60
2023/01/30 14:37:46;;;;;;;;;;;;;;;6.59;50.83;97761.84;4236251;28;5598;-61
2023/01/30 14:39:52;;;;;;;;;;;;;;;6.64;50.55;97756.97;4225755;27;5819;-61
2023/01/30 14:42:27;;;;;;;;;;;;;;;6.66;50.70;97755.03;4225110;28;5840;-61
2023/01/30 14:45:00;;;;;;;;;;;;;;;6.68;50.64;97757.50;4231683;28;5609;-60
2023/01/30 14:47:19;;;;;;;;;;;;;;;6.66;50.69;97759.44;4233557;28;5598;-61
2023/01/30 14:49:43;;;;;;;;;;;;;;;6.68;50.64;97763.63;4223379;28;5745;-61
2023/01/30 14:51:48;;;;;;;;;;;;;;;6.73;50.67;97765.78;4229544;27;5613;-61
2023/01/30 14:53:55;;;;;;;;;;;;;;;6.77;50.75;97769.78;4224853;27;5995;-61
2023/01/30 14:56:01;;;;;;;;;;;;;;;6.85;50.66;97756.75;4228995;27;5712;-60
2023/01/30 14:58:05;;;;;;;;;;;;;;;6.91;50.64;97757.97;4223966;28;5673;-61
2023/01/30 15:00:18;;;;;;;;;;;;;;;6.91;50.63;97756.19;4230463;27;5704;-62
2023/01/30 15:02:25;;;;;;;;;;;;;;;6.96;50.56;97758.34;4231410;27;5749;-62
2023/01/30 15:04:32;;;;;;;;;;;;;;;6.96;50.63;97755.72;4232304;27;5606;-62
2023/01/30 15:06:36;;;;;;;;;;;;;;;6.95;50.84;97773.28;4228709;27;5589;-62
2023/01/30 15:08:42;;;;;;;;;;;;;;;6.96;50.68;97774.13;4227305;27;5693;-62
2023/01/30 15:11:01;;;;;;;;;;;;;;;6.95;50.78;97775.94;4223500;27;5653;-62
2023/01/30 15:13:43;;;;;;;;;;;;;;;6.93;50.78;97771.78;4229887;27;5688;-60
2023/01/30 15:15:55;;;;;;;;;;;;;;;6.91;50.54;97765.88;4205795;27;6427;-61
2023/01/30 15:18:18;;;;;;;;;;;;;;;6.90;50.62;97778.16;4222843;27;5628;-61
2023/01/30 15:20:28;;;;;;;;;;;;;;;6.87;50.71;97759.22;4222624;28;5624;-61
2023/01/30 15:22:43;;;;;;;;;;;;;;;6.87;50.68;97761.84;4226699;27;5859;-60
2023/01/30 15:25:15;;;;;;;;;;;;;;;6.86;50.72;97768.09;4222640;27;6824;-61
2023/01/30 15:27:27;;;;;;;;;;;;;;;6.86;50.75;97760.19;4223324;28;5961;-61
2023/01/30 15:29:55;;;;;;;;;;;;;;;6.91;50.81;97758.81;4221448;28;5715;-61
2023/01/30 15:32:00;;;;;;;;;;;;;;;6.91;50.90;97758.81;4217177;28;6314;-61
2023/01/30 15:34:05;;;;;;;;;;;;;;;6.91;50.63;97766.69;4222150;27;5672;-62
2023/01/30 15:36:19;;;;;;;;;;;;;;;6.93;50.87;97756.84;4227885;27;5593;-61
2023/01/30 15:38:25;;;;;;;;;;;;;;;6.95;50.65;97754.91;4230220;27;5720;-62
2023/01/30 15:40:29;;;;;;;;;;;;;;;6.98;50.57;97759.03;4228955;27;5605;-62
2023/01/30 15:42:34;;;;;;;;;;;;;;;7.00;50.69;97767.59;4218697;27;5736;-64
2023/01/30 15:44:50;;;;;;;;;;;;;;;7.01;50.66;97767.44;4226117;27;5879;-61
2023/01/30 15:47:03;;;;;;;;;;;;;;;7.04;50.66;97774.22;4224369;27;6431;-61
2023/01/30 15:49:29;;;;;;;;;;;;;;;7.01;50.69;97770.06;4222713;27;5610;-61
2023/01/30 15:51:33;;;;;;;;;;;;;;;6.98;50.52;97773.00;4227820;27;5828;-61
2023/01/30 15:53:41;;;;;;;;;;;;;;;6.97;50.76;97773.97;4225239;27;5966;-61
2023/01/30 15:55:45;;;;;;;;;;;;;;;6.98;50.84;97774.81;4222353;28;5603;-61
2023/01/30 15:57:55;;;;;;;;;;;;;;;6.96;50.58;97768.88;4230910;28;5629;-61
2023/01/30 15:59:59;;;;;;;;;;;;;;;6.95;50.65;97770.66;4222037;28;5601;-61
2023/01/30 16:02:06;;;;;;;;;;;;;;;6.93;50.53;97761.28;4226651;27;5595;-62
2023/01/30 16:04:26;;;;;;;;;;;;;;;6.91;50.88;97779.84;4227602;27;5802;-61
2023/01/30 16:06:32;;;;;;;;;;;;;;;6.90;50.58;97778.16;4225567;27;5597;-61
2023/01/30 16:08:36;;;;;;;;;;;;;;;6.88;50.77;97784.53;4229407;27;5776;-61
2023/01/30 16:10:45;;;;;;;;;;;;;;;6.88;50.74;97782.72;4222144;27;5771;-60
2023/01/30 16:12:55;;;;;;;;;;;;;;;6.88;50.88;97779.28;4230023;27;5755;-61
2023/01/30 16:14:58;;;;;;;;;;;;;;;6.87;50.94;97783.72;4218633;27;6424;-61
2023/01/30 16:17:20;;;;;;;;;;;;;;;6.86;50.96;97783.84;4229982;27;5617;-61
2023/01/30 16:19:27;;;;;;;;;;;;;;;6.85;50.93;97772.50;4227734;27;5617;-61
2023/01/30 16:21:33;;;;;;;;;;;;;;;6.85;50.80;97790.91;4224320;27;5582;-61
2023/01/30 16:23:38;;;;;;;;;;;;;;;6.85;50.73;97793.53;4227584;27;5802;-60
2023/01/30 16:25:47;;;;;;;;;;;;;;;6.83;50.78;97795.50;4228141;27;5739;-61
2023/01/30 16:27:53;;;;;;;;;;;;;;;6.80;51.04;97795.78;4218373;27;5749;-61
2023/01/30 16:30:04;;;;;;;;;;;;;;;6.81;50.84;97802.69;4226300;27;5680;-61
2023/01/30 16:32:13;;;;;;;;;;;;;;;6.84;50.97;97796.31;4224251;27;5929;-60
2023/01/30 16:34:28;;;;;;;;;;;;;;;6.85;50.65;97790.09;4228405;27;5598;-69
2023/01/30 16:36:39;;;;;;;;;;;;;;;6.84;50.88;97797.16;4232003;28;5685;-70
2023/01/30 16:38:45;;;;;;;;;;;;;;;6.82;50.87;97798.28;4227717;27;5752;-71